Kyokuho Maru No.15 — JI3715 — position and weather

sailwx.info

Track history (hours):
 
Tides and Currents Weather Stations Pressure Air Temp Water Temp Dewpoint Dewpoint Depression Visibility Wind Speed Wind Dir Waves Ship Positions

Kyokuho Maru No.15

Last reported at 2017-Apr-29 15:40 UTC. Time now 2017-Apr-30 13:09 UTC.
Position N 34°05' E 134°59'.

Length 63 m; draft 4 m.

Type: Tanker. MMSI: 431301714.

Date/timePositionNaut miles runAvg speedWind from/ knotsBaromVisibWave heightAir tempDewpointWater temp
2017-Apr-29 15:40N 34°05' E 134°59'211.2
2017-Apr-29 15:29N 34°07' E 134°59'611.5
2017-Apr-29 15:00N 34°12' E 134°59'10 9.5
2017-Apr-29 14:00N 34°22' E 134°60'510.4
2017-Apr-29 13:30N 34°27' E 135°01'510.0
2017-Apr-29 13:00N 34°32' E 135°03'4 8.4
2017-Apr-29 12:30N 34°36' E 135°03'  
2017-Apr-26 07:22N 34°36' E 134°54'411.8
2017-Apr-26 07:00N 34°37' E 134°59'5 9.8
2017-Apr-26 06:30N 34°36' E 135°04'5 9.6
2017-Apr-26 06:00N 34°39' E 135°09'0 0.0
2017-Apr-26 05:30N 34°39' E 135°09'0 0.0
2017-Apr-26 05:01N 34°39' E 135°09'0 0.0
2017-Apr-26 04:30N 34°39' E 135°09'2 4.3
2017-Apr-26 04:00N 34°38' E 135°11'510.5
2017-Apr-26 03:30N 34°40' E 135°18'0 0.5
2017-Apr-26 03:00N 34°40' E 135°18'0 0.0
2017-Apr-26 02:30N 34°40' E 135°18'0 0.1
2017-Apr-26 02:00N 34°40' E 135°18'0 0.6
2017-Apr-26 01:31N 34°39' E 135°18'0 0.3
2017-Apr-26 01:00N 34°39' E 135°18'0 0.0
2017-Apr-26 00:30N 34°39' E 135°18'1 2.3
2017-Apr-26 00:00N 34°39' E 135°19'0 0.1
2017-Apr-25 23:30N 34°39' E 135°19'0 0.0
2017-Apr-25 22:54N 34°39' E 135°19'0 0.0
2017-Apr-25 22:30N 34°39' E 135°19'0 0.0
2017-Apr-25 22:00N 34°39' E 135°19'0 0.0
2017-Apr-25 21:30N 34°39' E 135°19'0 0.0
2017-Apr-25 21:00N 34°39' E 135°19'0 0.1
2017-Apr-25 20:30N 34°39' E 135°19'0 0.0
2017-Apr-25 20:00N 34°39' E 135°19'0 0.0
2017-Apr-25 19:18N 34°39' E 135°19'0 0.0
2017-Apr-25 19:00N 34°39' E 135°19'0 0.1
2017-Apr-25 18:30N 34°39' E 135°19'0 0.0
2017-Apr-25 18:00N 34°39' E 135°19'0 0.1
2017-Apr-25 17:30N 34°39' E 135°19'2 4.5
2017-Apr-25 17:00N 34°38' E 135°17'612.5
2017-Apr-25 16:30N 34°36' E 135°09'713.5
2017-Apr-25 15:59N 34°37' E 135°01'  
2017-Apr-23 02:24N 34°40' E 134°48'6 9.5
2017-Apr-23 01:48N 34°37' E 134°54'410.1
2017-Apr-23 01:25N 34°37' E 134°59'4 9.4
2017-Apr-23 01:00N 34°36' E 135°03'5 9.8
2017-Apr-23 00:27N 34°31' E 135°04'1711.6
2017-Apr-22 23:01N 34°15' E 134°59'011.9
2017-Apr-22 22:59N 34°15' E 134°59'611.5
2017-Apr-22 22:30N 34°09' E 134°60'  
2017-Apr-20 10:41N 34°49' E 139°09'211.2
2017-Apr-20 10:30N 34°51' E 139°10'1510.7
2017-Apr-20 09:05N 34°59' E 139°26'210.2
2017-Apr-20 08:56N 34°60' E 139°27'510.9
2017-Apr-20 08:30N 35°02' E 139°33'611.2
2017-Apr-20 08:00N 35°05' E 139°38'611.4
2017-Apr-20 07:30N 35°09' E 139°44'611.5
2017-Apr-20 07:00N 35°14' E 139°46'611.7
2017-Apr-20 06:30N 35°19' E 139°43'510.8
2017-Apr-20 06:00N 35°24' E 139°43'611.4
2017-Apr-20 05:30N 35°29' E 139°48'3 6.3
2017-Apr-20 05:00N 35°31' E 139°45'0 0.0
2017-Apr-20 04:30N 35°31' E 139°45'0 0.0
2017-Apr-20 04:00N 35°31' E 139°45'0 0.0
2017-Apr-20 03:30N 35°31' E 139°45'0 0.0
2017-Apr-20 03:00N 35°31' E 139°45'0 0.0
2017-Apr-20 02:30N 35°31' E 139°45'0 0.0
2017-Apr-20 02:00N 35°31' E 139°45'0 0.0
2017-Apr-20 01:30N 35°31' E 139°45'0 0.0
2017-Apr-20 01:00N 35°31' E 139°45'0 0.0
2017-Apr-20 00:30N 35°31' E 139°45'0 0.0
2017-Apr-20 00:00N 35°31' E 139°45'0 0.0
2017-Apr-19 23:30N 35°31' E 139°45'0 0.0
2017-Apr-19 23:00N 35°31' E 139°45'1 2.0
2017-Apr-19 22:31N 35°30' E 139°45'0 0.1
2017-Apr-19 22:00N 35°30' E 139°45'0 0.0
2017-Apr-19 21:24N 35°30' E 139°45'0 0.0
2017-Apr-19 21:00N 35°30' E 139°45'0 0.0
2017-Apr-19 20:27N 35°30' E 139°45'0 0.0
2017-Apr-19 20:00N 35°30' E 139°45'0 0.0
2017-Apr-19 19:30N 35°30' E 139°45'0 0.0
2017-Apr-19 19:00N 35°30' E 139°45'0 0.0
2017-Apr-19 18:30N 35°30' E 139°45'0 0.0
2017-Apr-19 17:54N 35°30' E 139°45'0 0.0
2017-Apr-19 17:30N 35°30' E 139°45'0 0.0
2017-Apr-19 17:00N 35°30' E 139°45'0 0.0
2017-Apr-19 16:30N 35°30' E 139°45'0 0.0
2017-Apr-19 16:00N 35°30' E 139°45'  
Track history (hours):
 
Tides and Currents Weather Stations Pressure Air Temp Water Temp Dewpoint Dewpoint Depression Visibility Wind Speed Wind Dir Waves Ship Positions

Kyokuho Maru No.15

Last reported at 2017-Apr-29 15:40 UTC. Time now 2017-Apr-30 13:09 UTC.
Position N 34°05' E 134°59'.

Length 63 m; draft 4 m.

Type: Tanker. MMSI: 431301714.

Date/timePositionNaut miles runAvg speedWind from/ knotsBaromVisibWave heightAir tempDewpointWater temp
2017-Apr-29 15:40N 34°05' E 134°59'211.2
2017-Apr-29 15:29N 34°07' E 134°59'611.5
2017-Apr-29 15:00N 34°12' E 134°59'10 9.5
2017-Apr-29 14:00N 34°22' E 134°60'510.4
2017-Apr-29 13:30N 34°27' E 135°01'510.0
2017-Apr-29 13:00N 34°32' E 135°03'4 8.4
2017-Apr-29 12:30N 34°36' E 135°03'  
2017-Apr-26 07:22N 34°36' E 134°54'411.8
2017-Apr-26 07:00N 34°37' E 134°59'5 9.8
2017-Apr-26 06:30N 34°36' E 135°04'5 9.6
2017-Apr-26 06:00N 34°39' E 135°09'0 0.0
2017-Apr-26 05:30N 34°39' E 135°09'0 0.0
2017-Apr-26 05:01N 34°39' E 135°09'0 0.0
2017-Apr-26 04:30N 34°39' E 135°09'2 4.3
2017-Apr-26 04:00N 34°38' E 135°11'510.5
2017-Apr-26 03:30N 34°40' E 135°18'0 0.5
2017-Apr-26 03:00N 34°40' E 135°18'0 0.0
2017-Apr-26 02:30N 34°40' E 135°18'0 0.1
2017-Apr-26 02:00N 34°40' E 135°18'0 0.6
2017-Apr-26 01:31N 34°39' E 135°18'0 0.3
2017-Apr-26 01:00N 34°39' E 135°18'0 0.0
2017-Apr-26 00:30N 34°39' E 135°18'1 2.3
2017-Apr-26 00:00N 34°39' E 135°19'0 0.1
2017-Apr-25 23:30N 34°39' E 135°19'0 0.0
2017-Apr-25 22:54N 34°39' E 135°19'0 0.0
2017-Apr-25 22:30N 34°39' E 135°19'0 0.0
2017-Apr-25 22:00N 34°39' E 135°19'0 0.0
2017-Apr-25 21:30N 34°39' E 135°19'0 0.0
2017-Apr-25 21:00N 34°39' E 135°19'0 0.1
2017-Apr-25 20:30N 34°39' E 135°19'0 0.0
2017-Apr-25 20:00N 34°39' E 135°19'0 0.0
2017-Apr-25 19:18N 34°39' E 135°19'0 0.0
2017-Apr-25 19:00N 34°39' E 135°19'0 0.1
2017-Apr-25 18:30N 34°39' E 135°19'0 0.0
2017-Apr-25 18:00N 34°39' E 135°19'0 0.1
2017-Apr-25 17:30N 34°39' E 135°19'2 4.5
2017-Apr-25 17:00N 34°38' E 135°17'612.5
2017-Apr-25 16:30N 34°36' E 135°09'713.5
2017-Apr-25 15:59N 34°37' E 135°01'  
2017-Apr-23 02:24N 34°40' E 134°48'6 9.5
2017-Apr-23 01:48N 34°37' E 134°54'410.1
2017-Apr-23 01:25N 34°37' E 134°59'4 9.4
2017-Apr-23 01:00N 34°36' E 135°03'5 9.8
2017-Apr-23 00:27N 34°31' E 135°04'1711.6
2017-Apr-22 23:01N 34°15' E 134°59'011.9
2017-Apr-22 22:59N 34°15' E 134°59'611.5
2017-Apr-22 22:30N 34°09' E 134°60'  
2017-Apr-20 10:41N 34°49' E 139°09'211.2
2017-Apr-20 10:30N 34°51' E 139°10'1510.7
2017-Apr-20 09:05N 34°59' E 139°26'210.2
2017-Apr-20 08:56N 34°60' E 139°27'510.9
2017-Apr-20 08:30N 35°02' E 139°33'611.2
2017-Apr-20 08:00N 35°05' E 139°38'611.4
2017-Apr-20 07:30N 35°09' E 139°44'611.5
2017-Apr-20 07:00N 35°14' E 139°46'611.7
2017-Apr-20 06:30N 35°19' E 139°43'510.8
2017-Apr-20 06:00N 35°24' E 139°43'611.4
2017-Apr-20 05:30N 35°29' E 139°48'3 6.3
2017-Apr-20 05:00N 35°31' E 139°45'0 0.0
2017-Apr-20 04:30N 35°31' E 139°45'0 0.0
2017-Apr-20 04:00N 35°31' E 139°45'0 0.0
2017-Apr-20 03:30N 35°31' E 139°45'0 0.0
2017-Apr-20 03:00N 35°31' E 139°45'0 0.0
2017-Apr-20 02:30N 35°31' E 139°45'0 0.0
2017-Apr-20 02:00N 35°31' E 139°45'0 0.0
2017-Apr-20 01:30N 35°31' E 139°45'0 0.0
2017-Apr-20 01:00N 35°31' E 139°45'0 0.0
2017-Apr-20 00:30N 35°31' E 139°45'0 0.0
2017-Apr-20 00:00N 35°31' E 139°45'0 0.0
2017-Apr-19 23:30N 35°31' E 139°45'0 0.0
2017-Apr-19 23:00N 35°31' E 139°45'1 2.0
2017-Apr-19 22:31N 35°30' E 139°45'0 0.1
2017-Apr-19 22:00N 35°30' E 139°45'0 0.0
2017-Apr-19 21:24N 35°30' E 139°45'0 0.0
2017-Apr-19 21:00N 35°30' E 139°45'0 0.0
2017-Apr-19 20:27N 35°30' E 139°45'0 0.0
2017-Apr-19 20:00N 35°30' E 139°45'0 0.0
2017-Apr-19 19:30N 35°30' E 139°45'0 0.0
2017-Apr-19 19:00N 35°30' E 139°45'0 0.0
2017-Apr-19 18:30N 35°30' E 139°45'0 0.0
2017-Apr-19 17:54N 35°30' E 139°45'0 0.0
2017-Apr-19 17:30N 35°30' E 139°45'0 0.0
2017-Apr-19 17:00N 35°30' E 139°45'0 0.0
2017-Apr-19 16:30N 35°30' E 139°45'0 0.0
2017-Apr-19 16:00N 35°30' E 139°45'  

Dump ship's entire track history